sensor_id;sensor_type;location;lat;lon;timestamp;pressure;altitude;pressure_sealevel;temperature;humidity
72498;BME280;60522;52.536;5.702;2023-01-16T00:00:53;99633.88;;;19.07;55.09
72498;BME280;60522;52.536;5.702;2023-01-16T00:03:18;99635.84;;;19.06;55.28
72498;BME280;60522;52.536;5.702;2023-01-16T00:05:44;99614.03;;;18.95;55.32
72498;BME280;60522;52.536;5.702;2023-01-16T00:08:10;99605.47;;;18.97;55.26
72498;BME280;60522;52.536;5.702;2023-01-16T00:10:36;99559.88;;;18.72;55.22
72498;BME280;60522;52.536;5.702;2023-01-16T00:13:02;99609.75;;;19.05;55.36
72498;BME280;60522;52.536;5.702;2023-01-16T00:15:27;99587.16;;;18.97;55.35
72498;BME280;60522;52.536;5.702;2023-01-16T00:17:53;99587.16;;;18.97;55.38
72498;BME280;60522;52.536;5.702;2023-01-16T00:20:18;99600.00;;;19.04;55.42
72498;BME280;60522;52.536;5.702;2023-01-16T00:22:43;99579.00;;;18.90;55.40
72498;BME280;60522;52.536;5.702;2023-01-16T00:25:09;99590.66;;;19.05;55.51
72498;BME280;60522;52.536;5.702;2023-01-16T00:27:34;99582.91;;;19.00;55.46
72498;BME280;60522;52.536;5.702;2023-01-16T00:30:00;99577.81;;;19.02;55.55
72498;BME280;60522;52.536;5.702;2023-01-16T00:32:26;99559.91;;;18.90;55.64
72498;BME280;60522;52.536;5.702;2023-01-16T00:34:51;99584.44;;;19.04;55.66
72498;BME280;60522;52.536;5.702;2023-01-16T00:37:16;99571.22;;;19.03;55.51
72498;BME280;60522;52.536;5.702;2023-01-16T00:39:42;99569.25;;;19.03;55.77
72498;BME280;60522;52.536;5.702;2023-01-16T00:42:07;99560.72;;;19.01;55.82
72498;BME280;60522;52.536;5.702;2023-01-16T00:44:34;99561.47;;;19.02;55.75
72498;BME280;60522;52.536;5.702;2023-01-16T00:46:59;99559.53;;;19.02;55.80
72498;BME280;60522;52.536;5.702;2023-01-16T00:49:25;99557.97;;;19.01;55.92
72498;BME280;60522;52.536;5.702;2023-01-16T00:51:50;99533.06;;;18.88;55.87
72498;BME280;60522;52.536;5.702;2023-01-16T00:54:16;99546.69;;;19.03;55.89
72498;BME280;60522;52.536;5.702;2023-01-16T00:56:41;99544.34;;;19.01;55.94
72498;BME280;60522;52.536;5.702;2023-01-16T00:59:06;99540.06;;;19.00;55.96
72498;BME280;60522;52.536;5.702;2023-01-16T01:01:32;99528.41;;;19.00;55.94
72498;BME280;60522;52.536;5.702;2023-01-16T01:04:01;99524.50;;;19.01;56.25
72498;BME280;60522;52.536;5.702;2023-01-16T01:06:26;99523.72;;;18.97;56.02
72498;BME280;60522;52.536;5.702;2023-01-16T01:08:52;99516.72;;;18.99;55.79
72498;BME280;60522;52.536;5.702;2023-01-16T01:11:17;99507.38;;;18.97;56.16
72498;BME280;60522;52.536;5.702;2023-01-16T01:13:43;99507.00;;;18.98;56.11
72498;BME280;60522;52.536;5.702;2023-01-16T01:16:10;99493.34;;;18.95;56.16
72498;BME280;60522;52.536;5.702;2023-01-16T01:18:36;99490.25;;;18.96;56.08
72498;BME280;60522;52.536;5.702;2023-01-16T01:21:02;99492.97;;;19.00;56.10
72498;BME280;60522;52.536;5.702;2023-01-16T01:23:28;99478.19;;;18.97;56.35
72498;BME280;60522;52.536;5.702;2023-01-16T01:25:53;99478.94;;;18.98;56.22
72498;BME280;60522;52.536;5.702;2023-01-16T01:28:19;99464.19;;;18.92;56.20
72498;BME280;60522;52.536;5.702;2023-01-16T01:30:45;99477.41;;;18.97;56.41
72498;BME280;60522;52.536;5.702;2023-01-16T01:33:10;99473.13;;;18.96;56.30
72498;BME280;60522;52.536;5.702;2023-01-16T01:35:37;99473.91;;;18.96;56.23
72498;BME280;60522;52.536;5.702;2023-01-16T01:38:02;99489.84;;;18.98;56.22
72498;BME280;60522;52.536;5.702;2023-01-16T01:40:28;99466.91;;;18.92;56.39
72498;BME280;60522;52.536;5.702;2023-01-16T01:42:53;99471.19;;;19.00;56.33
72498;BME280;60522;52.536;5.702;2023-01-16T01:45:23;99464.56;;;18.97;56.29
72498;BME280;60522;52.536;5.702;2023-01-16T01:48:18;99461.84;;;18.97;56.90
72498;BME280;60522;52.536;5.702;2023-01-16T01:53:29;99421.75;;;18.80;56.98
72498;BME280;60522;52.536;5.702;2023-01-16T01:56:00;99431.88;;;18.94;56.67
72498;BME280;60522;52.536;5.702;2023-01-16T01:58:28;99416.69;;;18.89;56.46
72498;BME280;60522;52.536;5.702;2023-01-16T02:00:57;99432.25;;;18.99;56.64
72498;BME280;60522;52.536;5.702;2023-01-16T02:03:31;99397.25;;;18.87;56.69
72498;BME280;60522;52.536;5.702;2023-01-16T02:06:00;99419.03;;;18.94;56.74
72498;BME280;60522;52.536;5.702;2023-01-16T02:08:31;99412.44;;;18.95;56.64
72498;BME280;60522;52.536;5.702;2023-01-16T02:11:05;99406.19;;;18.91;56.98
72498;BME280;60522;52.536;5.702;2023-01-16T02:13:33;99385.19;;;18.81;56.32
72498;BME280;60522;52.536;5.702;2023-01-16T02:15:58;99405.78;;;18.96;56.60
72498;BME280;60522;52.536;5.702;2023-01-16T02:18:42;99403.84;;;18.97;56.62
72498;BME280;60522;52.536;5.702;2023-01-16T02:21:45;99395.69;;;18.90;57.09
72498;BME280;60522;52.536;5.702;2023-01-16T02:29:50;99386.34;;;18.91;56.84
72498;BME280;60522;52.536;5.702;2023-01-16T02:32:29;99390.22;;;18.93;56.83
72498;BME280;60522;52.536;5.702;2023-01-16T02:38:14;99382.84;;;18.94;57.08
72498;BME280;60522;52.536;5.702;2023-01-16T02:40:57;99347.81;;;18.81;56.89
72498;BME280;60522;52.536;5.702;2023-01-16T02:43:37;99369.22;;;18.94;56.93
72498;BME280;60522;52.536;5.702;2023-01-16T02:46:35;99363.78;;;18.94;57.21
72498;BME280;60522;52.536;5.702;2023-01-16T02:49:20;99365.31;;;18.95;57.04
72498;BME280;60522;52.536;5.702;2023-01-16T02:52:19;99357.94;;;18.95;57.03
72498;BME280;60522;52.536;5.702;2023-01-16T02:54:59;99347.44;;;18.94;56.96
72498;BME280;60522;52.536;5.702;2023-01-16T02:57:33;99355.22;;;18.95;57.04
72498;BME280;60522;52.536;5.702;2023-01-16T03:00:00;99349.75;;;18.95;56.56
72498;BME280;60522;52.536;5.702;2023-01-16T03:02:27;99327.19;;;18.84;56.57
72498;BME280;60522;52.536;5.702;2023-01-16T03:04:52;99331.09;;;18.94;56.57
72498;BME280;60522;52.536;5.702;2023-01-16T03:18:36;99315.13;;;18.96;56.60
72498;BME280;60522;52.536;5.702;2023-01-16T03:26:38;99310.44;;;18.96;57.06
72498;BME280;60522;52.536;5.702;2023-01-16T03:29:52;99289.44;;;18.82;56.54
72498;BME280;60522;52.536;5.702;2023-01-16T03:32:06;99301.13;;;18.94;57.20
72498;BME280;60522;52.536;5.702;2023-01-16T03:37:16;99299.94;;;18.98;56.94
72498;BME280;60522;52.536;5.702;2023-01-16T03:39:50;99292.91;;;18.97;57.09
72498;BME280;60522;52.536;5.702;2023-01-16T03:42:23;99285.91;;;18.96;56.98
72498;BME280;60522;52.536;5.702;2023-01-16T03:44:55;99279.31;;;18.97;56.79
72498;BME280;60522;52.536;5.702;2023-01-16T03:47:26;99272.69;;;18.95;56.81
72498;BME280;60522;52.536;5.702;2023-01-16T03:49:58;99271.50;;;18.99;57.02
72498;BME280;60522;52.536;5.702;2023-01-16T03:52:32;99251.69;;;18.95;57.01
72498;BME280;60522;52.536;5.702;2023-01-16T03:55:07;99251.69;;;18.95;57.03
72498;BME280;60522;52.536;5.702;2023-01-16T03:57:45;99233.06;;;18.86;57.22
72498;BME280;60522;52.536;5.702;2023-01-16T04:00:13;99220.56;;;18.89;56.76
72498;BME280;60522;52.536;5.702;2023-01-16T04:03:08;99226.38;;;18.98;57.29
72498;BME280;60522;52.536;5.702;2023-01-16T04:06:06;99216.63;;;18.97;57.26
72498;BME280;60522;52.536;5.702;2023-01-16T04:08:36;99212.75;;;18.98;56.93
72498;BME280;60522;52.536;5.702;2023-01-16T04:11:05;99207.31;;;18.98;56.85
72498;BME280;60522;52.536;5.702;2023-01-16T04:13:34;99194.84;;;18.97;57.05
72498;BME280;60522;52.536;5.702;2023-01-16T04:16:03;99192.88;;;18.98;56.94
72498;BME280;60522;52.536;5.702;2023-01-16T04:18:34;99172.72;;;18.88;57.17
72498;BME280;60522;52.536;5.702;2023-01-16T04:21:00;99178.56;;;18.86;56.81
72498;BME280;60522;52.536;5.702;2023-01-16T04:23:26;99183.19;;;18.97;56.86
72498;BME280;60522;52.536;5.702;2023-01-16T04:25:51;99185.13;;;18.96;56.96
72498;BME280;60522;52.536;5.702;2023-01-16T04:28:16;99182.00;;;18.98;56.89
72498;BME280;60522;52.536;5.702;2023-01-16T04:30:42;99166.13;;;18.85;56.88
72498;BME280;60522;52.536;5.702;2023-01-16T04:33:07;99168.75;;;19.00;56.97
72498;BME280;60522;52.536;5.702;2023-01-16T04:35:34;99169.16;;;18.98;56.84
72498;BME280;60522;52.536;5.702;2023-01-16T04:38:00;99155.13;;;19.00;56.89
72498;BME280;60522;52.536;5.702;2023-01-16T04:40:25;99152.78;;;19.02;56.91
72498;BME280;60522;52.536;5.702;2023-01-16T04:42:51;99146.56;;;19.01;56.87
72498;BME280;60522;52.536;5.702;2023-01-16T04:45:16;99136.44;;;19.02;56.83
72498;BME280;60522;52.536;5.702;2023-01-16T04:47:46;99135.28;;;19.03;57.28
72498;BME280;60522;52.536;5.702;2023-01-16T04:50:12;99131.38;;;19.00;56.92
72498;BME280;60522;52.536;5.702;2023-01-16T04:52:38;99119.72;;;19.00;56.72
72498;BME280;60522;52.536;5.702;2023-01-16T04:55:03;99114.69;;;18.98;56.94
72498;BME280;60522;52.536;5.702;2023-01-16T04:57:29;99094.03;;;18.97;56.94
72498;BME280;60522;52.536;5.702;2023-01-16T04:59:54;99088.59;;;18.97;57.09
72498;BME280;60522;52.536;5.702;2023-01-16T05:02:19;99080.44;;;18.97;56.97
72498;BME280;60522;52.536;5.702;2023-01-16T05:04:45;99063.38;;;18.86;57.02
72498;BME280;60522;52.536;5.702;2023-01-16T05:07:10;99069.53;;;18.97;56.92
72498;BME280;60522;52.536;5.702;2023-01-16T05:09:36;99057.06;;;18.96;56.93
72498;BME280;60522;52.536;5.702;2023-01-16T05:12:01;99043.91;;;18.91;57.09
72498;BME280;60522;52.536;5.702;2023-01-16T05:14:27;99037.59;;;18.98;56.95
72498;BME280;60522;52.536;5.702;2023-01-16T05:16:52;99038.00;;;18.96;56.95
72498;BME280;60522;52.536;5.702;2023-01-16T05:19:17;99000.34;;;18.84;57.17
72498;BME280;60522;52.536;5.702;2023-01-16T05:21:43;99019.72;;;18.97;57.24
72498;BME280;60522;52.536;5.702;2023-01-16T05:24:08;99015.81;;;18.98;57.17
72498;BME280;60522;52.536;5.702;2023-01-16T05:26:33;99006.50;;;18.95;57.23
72498;BME280;60522;52.536;5.702;2023-01-16T05:28:59;99000.28;;;18.95;57.19
72498;BME280;60522;52.536;5.702;2023-01-16T05:31:24;98992.91;;;18.95;57.19
72498;BME280;60522;52.536;5.702;2023-01-16T05:33:49;98994.81;;;18.95;57.16
72498;BME280;60522;52.536;5.702;2023-01-16T05:36:15;98983.94;;;18.95;57.33
72498;BME280;60522;52.536;5.702;2023-01-16T05:38:40;98988.22;;;18.96;57.22
72498;BME280;60522;52.536;5.702;2023-01-16T05:41:05;98976.94;;;18.94;57.14
72498;BME280;60522;52.536;5.702;2023-01-16T05:43:31;98970.31;;;18.95;57.32
72498;BME280;60522;52.536;5.702;2023-01-16T05:45:57;98962.94;;;18.92;57.19
72498;BME280;60522;52.536;5.702;2023-01-16T05:48:22;98959.81;;;18.93;57.11
72498;BME280;60522;52.536;5.702;2023-01-16T05:50:49;98958.25;;;18.96;57.28
72498;BME280;60522;52.536;5.702;2023-01-16T05:53:15;98951.25;;;18.95;57.54
72498;BME280;60522;52.536;5.702;2023-01-16T05:55:45;98945.44;;;18.93;57.87
72498;BME280;60522;52.536;5.702;2023-01-16T05:58:13;98935.72;;;18.92;57.60
72498;BME280;60522;52.536;5.702;2023-01-16T06:00:39;98927.19;;;18.90;57.55
72498;BME280;60522;52.536;5.702;2023-01-16T06:03:05;98929.91;;;18.90;57.66
72498;BME280;60522;52.536;5.702;2023-01-16T06:05:31;98894.25;;;18.73;57.73
72498;BME280;60522;52.536;5.702;2023-01-16T06:07:57;98904.22;;;18.87;57.45
72498;BME280;60522;52.536;5.702;2023-01-16T06:10:24;98903.81;;;18.88;57.53
72498;BME280;60522;52.536;5.702;2023-01-16T06:12:49;98888.25;;;18.89;57.77
72498;BME280;60522;52.536;5.702;2023-01-16T06:15:14;98873.56;;;18.76;57.70
72498;BME280;60522;52.536;5.702;2023-01-16T06:17:40;98877.75;;;18.87;57.91
72498;BME280;60522;52.536;5.702;2023-01-16T06:20:06;98864.94;;;18.84;57.71
72498;BME280;60522;52.536;5.702;2023-01-16T06:22:31;98862.19;;;18.84;57.86
72498;BME280;60522;52.536;5.702;2023-01-16T06:24:56;98864.94;;;18.84;57.82
72498;BME280;60522;52.536;5.702;2023-01-16T06:27:22;98850.94;;;18.82;57.84
72498;BME280;60522;52.536;5.702;2023-01-16T06:29:47;98840.06;;;18.82;57.89
72498;BME280;60522;52.536;5.702;2023-01-16T06:32:13;98837.75;;;18.81;57.95
72498;BME280;60522;52.536;5.702;2023-01-16T06:34:38;98832.28;;;18.81;57.91
72498;BME280;60522;52.536;5.702;2023-01-16T06:37:03;98824.88;;;18.81;57.96
72498;BME280;60522;52.536;5.702;2023-01-16T06:39:29;98821.03;;;18.79;57.91
72498;BME280;60522;52.536;5.702;2023-01-16T06:41:54;98809.00;;;18.76;57.83
72498;BME280;60522;52.536;5.702;2023-01-16T06:44:19;98801.97;;;18.79;57.81
72498;BME280;60522;52.536;5.702;2023-01-16T06:46:45;98796.53;;;18.79;57.97
72498;BME280;60522;52.536;5.702;2023-01-16T06:49:10;98794.97;;;18.78;57.96
72498;BME280;60522;52.536;5.702;2023-01-16T06:51:36;98739.75;;;18.43;57.98
72498;BME280;60522;52.536;5.702;2023-01-16T06:54:02;98793.47;;;18.73;58.05
72498;BME280;60522;52.536;5.702;2023-01-16T06:56:28;98760.56;;;18.60;58.04
72498;BME280;60522;52.536;5.702;2023-01-16T06:58:54;98777.56;;;18.72;58.14
72498;BME280;60522;52.536;5.702;2023-01-16T07:01:19;98770.16;;;18.72;58.14
72498;BME280;60522;52.536;5.702;2023-01-16T07:03:45;98765.88;;;18.71;58.14
72498;BME280;60522;52.536;5.702;2023-01-16T07:06:11;98762.38;;;18.70;58.13
72498;BME280;60522;52.536;5.702;2023-01-16T07:08:38;98747.31;;;18.62;58.14
72498;BME280;60522;52.536;5.702;2023-01-16T07:11:03;98756.19;;;18.66;58.19
72498;BME280;60522;52.536;5.702;2023-01-16T07:13:29;98755.38;;;18.69;58.21
72498;BME280;60522;52.536;5.702;2023-01-16T07:15:55;98749.59;;;18.67;58.23
72498;BME280;60522;52.536;5.702;2023-01-16T07:18:40;98755.44;;;18.66;58.13
72498;BME280;60522;52.536;5.702;2023-01-16T07:21:26;98726.75;;;18.58;58.28
72498;BME280;60522;52.536;5.702;2023-01-16T07:24:23;98743.78;;;18.65;58.49
72498;BME280;60522;52.536;5.702;2023-01-16T07:26:56;98738.34;;;18.65;58.51
72498;BME280;60522;52.536;5.702;2023-01-16T07:29:24;98732.50;;;18.67;58.15
72498;BME280;60522;52.536;5.702;2023-01-16T07:31:50;98721.59;;;18.67;58.14
72498;BME280;60522;52.536;5.702;2023-01-16T07:34:16;98726.25;;;18.66;58.02
72498;BME280;60522;52.536;5.702;2023-01-16T07:36:41;98719.63;;;18.67;57.89
72498;BME280;60522;52.536;5.702;2023-01-16T07:39:07;98701.88;;;18.56;54.23
72498;BME280;60522;52.536;5.702;2023-01-16T07:41:32;98706.94;;;18.57;53.43
72498;BME280;60522;52.536;5.702;2023-01-16T07:43:57;98708.19;;;18.49;53.22
72498;BME280;60522;52.536;5.702;2023-01-16T07:46:23;98699.31;;;18.41;53.31
72498;BME280;60522;52.536;5.702;2023-01-16T07:48:48;98700.94;;;18.39;53.08
72498;BME280;60522;52.536;5.702;2023-01-16T07:51:16;98690.53;;;18.30;53.55
72498;BME280;60522;52.536;5.702;2023-01-16T07:53:41;98695.44;;;18.42;53.68
72498;BME280;60522;52.536;5.702;2023-01-16T07:56:07;98679.06;;;18.46;53.83
72498;BME280;60522;52.536;5.702;2023-01-16T07:58:32;98678.63;;;18.51;53.79
72498;BME280;60522;52.536;5.702;2023-01-16T08:00:58;98634.94;;;18.31;54.37
72498;BME280;60522;52.536;5.702;2023-01-16T08:03:24;98666.91;;;18.54;54.38
72498;BME280;60522;52.536;5.702;2023-01-16T08:05:55;98650.97;;;18.52;53.68
72498;BME280;60522;52.536;5.702;2023-01-16T08:08:20;98654.47;;;18.53;54.72
72498;BME280;60522;52.536;5.702;2023-01-16T08:10:46;98640.44;;;18.55;54.59
72498;BME280;60522;52.536;5.702;2023-01-16T08:13:11;98632.81;;;18.46;54.70
72498;BME280;60522;52.536;5.702;2023-01-16T08:15:36;98630.75;;;18.53;54.96
72498;BME280;60522;52.536;5.702;2023-01-16T08:18:02;98619.88;;;18.53;54.89
72498;BME280;60522;52.536;5.702;2023-01-16T08:20:27;98608.97;;;18.53;54.94
72498;BME280;60522;52.536;5.702;2023-01-16T08:22:53;98594.97;;;18.55;54.95
72498;BME280;60522;52.536;5.702;2023-01-16T08:25:20;98572.53;;;18.47;54.86
72498;BME280;60522;52.536;5.702;2023-01-16T08:27:47;98568.16;;;18.53;54.82
72498;BME280;60522;52.536;5.702;2023-01-16T08:30:13;98559.97;;;18.53;54.79
72498;BME280;60522;52.536;5.702;2023-01-16T08:32:39;98551.81;;;18.53;55.03
72498;BME280;60522;52.536;5.702;2023-01-16T08:35:05;98527.06;;;18.44;55.00
72498;BME280;60522;52.536;5.702;2023-01-16T08:37:31;98538.22;;;18.53;55.03
72498;BME280;60522;52.536;5.702;2023-01-16T08:39:56;98536.59;;;18.56;55.05
72498;BME280;60522;52.536;5.702;2023-01-16T08:42:22;98509.53;;;18.45;54.89
72498;BME280;60522;52.536;5.702;2023-01-16T08:45:09;98498.25;;;18.47;54.59
72498;BME280;60522;52.536;5.702;2023-01-16T08:47:53;98510.56;;;18.55;54.83
72498;BME280;60522;52.536;5.702;2023-01-16T08:50:37;98495.16;;;18.45;54.70
72498;BME280;60522;52.536;5.702;2023-01-16T08:53:21;98513.72;;;18.53;54.76
72498;BME280;60522;52.536;5.702;2023-01-16T08:55:46;98497.00;;;18.51;54.78
72498;BME280;60522;52.536;5.702;2023-01-16T08:58:11;98505.97;;;18.52;54.83
72498;BME280;60522;52.536;5.702;2023-01-16T09:00:37;98483.06;;;18.49;54.88
72498;BME280;60522;52.536;5.702;2023-01-16T09:03:02;98488.06;;;18.51;54.82
72498;BME280;60522;52.536;5.702;2023-01-16T09:05:28;98482.28;;;18.49;54.82
72498;BME280;60522;52.536;5.702;2023-01-16T09:07:54;98450.59;;;18.35;54.78
72498;BME280;60522;52.536;5.702;2023-01-16T09:10:20;98467.53;;;18.46;54.89
72498;BME280;60522;52.536;5.702;2023-01-16T09:12:45;98457.47;;;18.43;54.86
72498;BME280;60522;52.536;5.702;2023-01-16T09:15:29;98457.84;;;18.45;54.98
72498;BME280;60522;52.536;5.702;2023-01-16T09:17:55;98450.44;;;18.46;54.81
72498;BME280;60522;52.536;5.702;2023-01-16T09:20:21;98443.06;;;18.46;54.82
72498;BME280;60522;52.536;5.702;2023-01-16T09:22:46;98427.25;;;18.38;54.81
72498;BME280;60522;52.536;5.702;2023-01-16T09:25:12;98413.75;;;18.30;54.84
72498;BME280;60522;52.536;5.702;2023-01-16T09:27:37;98425.25;;;18.42;54.69
72498;BME280;60522;52.536;5.702;2023-01-16T09:30:03;98428.28;;;18.47;54.68
72498;BME280;60522;52.536;5.702;2023-01-16T09:32:29;98425.53;;;18.47;54.67
72498;BME280;60522;52.536;5.702;2023-01-16T09:34:54;98418.56;;;18.46;54.58
72498;BME280;60522;52.536;5.702;2023-01-16T09:37:19;98409.63;;;18.46;54.70
72498;BME280;60522;52.536;5.702;2023-01-16T09:39:45;98394.47;;;18.45;54.70
72498;BME280;60522;52.536;5.702;2023-01-16T09:44:57;98382.47;;;18.42;54.54
72498;BME280;60522;52.536;5.702;2023-01-16T09:47:26;98370.44;;;18.40;54.77
72498;BME280;60522;52.536;5.702;2023-01-16T09:49:57;98372.28;;;18.46;54.13
72498;BME280;60522;52.536;5.702;2023-01-16T09:52:28;98366.84;;;18.46;54.35
72498;BME280;60522;52.536;5.702;2023-01-16T09:55:28;98359.84;;;18.45;53.89
72498;BME280;60522;52.536;5.702;2023-01-16T09:58:18;98356.72;;;18.47;54.27
72498;BME280;60522;52.536;5.702;2023-01-16T10:01:01;98346.63;;;18.47;54.53
72498;BME280;60522;52.536;5.702;2023-01-16T10:03:26;98340.81;;;18.45;54.65
72498;BME280;60522;52.536;5.702;2023-01-16T10:08:33;98335.03;;;18.43;53.97
72498;BME280;60522;52.536;5.702;2023-01-16T10:11:17;98302.59;;;18.29;54.05
72498;BME280;60522;52.536;5.702;2023-01-16T10:16:46;98300.91;;;18.39;53.98
72498;BME280;60522;52.536;5.702;2023-01-16T10:30:38;98264.50;;;18.29;53.96
72498;BME280;60522;52.536;5.702;2023-01-16T10:33:24;98258.31;;;18.28;54.05
72498;BME280;60522;52.536;5.702;2023-01-16T10:35:52;98272.06;;;18.41;54.47
72498;BME280;60522;52.536;5.702;2023-01-16T10:38:40;98260.41;;;18.41;53.90
72498;BME280;60522;52.536;5.702;2023-01-16T10:41:20;98253.09;;;18.38;53.98
72498;BME280;60522;52.536;5.702;2023-01-16T10:44:20;98251.50;;;18.40;53.96
72498;BME280;60522;52.536;5.702;2023-01-16T10:47:11;98247.22;;;18.39;54.11
72498;BME280;60522;52.536;5.702;2023-01-16T10:49:55;98241.78;;;18.39;54.55
72498;BME280;60522;52.536;5.702;2023-01-16T10:52:21;98239.81;;;18.40;54.47
72498;BME280;60522;52.536;5.702;2023-01-16T10:54:47;98230.56;;;18.37;54.26
72498;BME280;60522;52.536;5.702;2023-01-16T10:57:17;98223.91;;;18.38;53.98
72498;BME280;60522;52.536;5.702;2023-01-16T10:59:44;98188.53;;;18.18;54.30
72498;BME280;60522;52.536;5.702;2023-01-16T11:02:38;98217.28;;;18.39;53.78
72498;BME280;60522;52.536;5.702;2023-01-16T11:07:52;98201.38;;;18.38;54.29
72498;BME280;60522;52.536;5.702;2023-01-16T11:10:18;98195.94;;;18.38;54.44
72498;BME280;60522;52.536;5.702;2023-01-16T11:12:43;98185.81;;;18.38;54.44
72498;BME280;60522;52.536;5.702;2023-01-16T11:15:27;98154.22;;;18.24;54.49
72498;BME280;60522;52.536;5.702;2023-01-16T11:18:30;98166.78;;;18.38;53.64
72498;BME280;60522;52.536;5.702;2023-01-16T11:20:57;98143.28;;;18.28;54.31
72498;BME280;60522;52.536;5.702;2023-01-16T11:23:27;98134.00;;;18.25;54.20
72498;BME280;60522;52.536;5.702;2023-01-16T11:25:58;98155.88;;;18.38;54.30
72498;BME280;60522;52.536;5.702;2023-01-16T11:28:26;98137.44;;;18.29;54.24
72498;BME280;60522;52.536;5.702;2023-01-16T11:30:55;98137.25;;;18.37;54.16
72498;BME280;60522;52.536;5.702;2023-01-16T11:33:24;98121.78;;;18.33;54.25
72498;BME280;60522;52.536;5.702;2023-01-16T11:35:55;98132.94;;;18.39;53.98
72498;BME280;60522;52.536;5.702;2023-01-16T11:38:23;98134.53;;;18.37;54.30
72498;BME280;60522;52.536;5.702;2023-01-16T11:40:50;98121.03;;;18.33;54.35
72498;BME280;60522;52.536;5.702;2023-01-16T11:43:28;98116.69;;;18.35;53.83
72498;BME280;60522;52.536;5.702;2023-01-16T11:49:02;98100.84;;;18.30;53.84
72498;BME280;60522;52.536;5.702;2023-01-16T11:51:31;98104.59;;;18.37;54.12
72498;BME280;60522;52.536;5.702;2023-01-16T11:53:59;98084.94;;;18.29;54.29
72498;BME280;60522;52.536;5.702;2023-01-16T12:02:20;98080.53;;;18.35;53.60
72498;BME280;60522;52.536;5.702;2023-01-16T12:05:18;98088.66;;;18.39;53.92
72498;BME280;60522;52.536;5.702;2023-01-16T12:13:23;98059.56;;;18.35;54.03
72498;BME280;60522;52.536;5.702;2023-01-16T12:16:20;98061.50;;;18.35;53.80
72498;BME280;60522;52.536;5.702;2023-01-16T12:22:16;98048.72;;;18.32;53.88
72498;BME280;60522;52.536;5.702;2023-01-16T12:45:44;97994.75;;;18.30;53.68
72498;BME280;60522;52.536;5.702;2023-01-16T12:53:23;97959.28;;;18.17;54.15
72498;BME280;60522;52.536;5.702;2023-01-16T12:58:53;97943.03;;;18.14;53.82
72498;BME280;60522;52.536;5.702;2023-01-16T13:01:24;97955.56;;;18.28;53.85
72498;BME280;60522;52.536;5.702;2023-01-16T13:07:05;97953.59;;;18.28;54.32
72498;BME280;60522;52.536;5.702;2023-01-16T13:09:45;97942.72;;;18.28;54.32
72498;BME280;60522;52.536;5.702;2023-01-16T13:12:28;97935.84;;;18.24;53.89
72498;BME280;60522;52.536;5.702;2023-01-16T13:15:20;97935.75;;;18.27;53.95
72498;BME280;60522;52.536;5.702;2023-01-16T13:18:00;97938.41;;;18.31;53.59
72498;BME280;60522;52.536;5.702;2023-01-16T13:20:29;97926.03;;;18.26;54.21
72498;BME280;60522;52.536;5.702;2023-01-16T13:22:58;97930.66;;;18.29;54.11
72498;BME280;60522;52.536;5.702;2023-01-16T13:28:14;97904.91;;;18.17;53.70
72498;BME280;60522;52.536;5.702;2023-01-16T13:30:42;97918.13;;;18.32;54.10
72498;BME280;60522;52.536;5.702;2023-01-16T13:33:11;97923.50;;;18.35;53.65
72498;BME280;60522;52.536;5.702;2023-01-16T13:38:50;97924.88;;;18.44;53.66
72498;BME280;60522;52.536;5.702;2023-01-16T13:46:50;97898.22;;;18.51;53.92
72498;BME280;60522;52.536;5.702;2023-01-16T13:49:21;97908.63;;;18.57;53.72
72498;BME280;60522;52.536;5.702;2023-01-16T13:51:49;97872.72;;;18.45;53.83
72498;BME280;60522;52.536;5.702;2023-01-16T13:54:34;97891.44;;;18.60;53.64
72498;BME280;60522;52.536;5.702;2023-01-16T13:57:08;97871.38;;;18.53;53.47
72498;BME280;60522;52.536;5.702;2023-01-16T14:02:25;97873.38;;;18.66;53.61
72498;BME280;60522;52.536;5.702;2023-01-16T14:08:14;97873.34;;;18.82;53.22
72498;BME280;60522;52.536;5.702;2023-01-16T14:11:14;97872.16;;;18.83;53.42
72498;BME280;60522;52.536;5.702;2023-01-16T14:13:40;97842.47;;;18.73;53.62
72498;BME280;60522;52.536;5.702;2023-01-16T14:21:28;97835.78;;;18.77;53.46
72498;BME280;60522;52.536;5.702;2023-01-16T14:23:59;97854.38;;;18.95;53.48
72498;BME280;60522;52.536;5.702;2023-01-16T14:26:35;97856.25;;;18.98;53.40
72498;BME280;60522;52.536;5.702;2023-01-16T14:29:18;97835.50;;;18.88;53.45
72498;BME280;60522;52.536;5.702;2023-01-16T14:31:53;97858.75;;;19.05;53.29
72498;BME280;60522;52.536;5.702;2023-01-16T14:34:37;97849.38;;;19.07;53.25
72498;BME280;60522;52.536;5.702;2023-01-16T14:39:53;97821.69;;;18.95;53.09
72498;BME280;60522;52.536;5.702;2023-01-16T14:42:28;97851.59;;;19.12;52.46
72498;BME280;60522;52.536;5.702;2023-01-16T14:45:28;97853.03;;;19.16;52.89
72498;BME280;60522;52.536;5.702;2023-01-16T14:51:16;97844.41;;;19.18;52.82
72498;BME280;60522;52.536;5.702;2023-01-16T14:54:09;97842.44;;;19.18;52.79
72498;BME280;60522;52.536;5.702;2023-01-16T14:57:18;97849.75;;;19.21;52.71
72498;BME280;60522;52.536;5.702;2023-01-16T14:59:51;97843.88;;;19.23;52.69
72498;BME280;60522;52.536;5.702;2023-01-16T15:02:30;97843.13;;;19.22;52.66
72498;BME280;60522;52.536;5.702;2023-01-16T15:05:18;97849.63;;;19.25;52.67
72498;BME280;60522;52.536;5.702;2023-01-16T15:07:53;97845.72;;;19.26;52.89
72498;BME280;60522;52.536;5.702;2023-01-16T15:10:29;97841.81;;;19.27;52.70
72498;BME280;60522;52.536;5.702;2023-01-16T15:15:49;97835.50;;;19.30;52.68
72498;BME280;60522;52.536;5.702;2023-01-16T15:18:17;97834.31;;;19.31;53.02
72498;BME280;60522;52.536;5.702;2023-01-16T15:21:03;97836.16;;;19.34;52.96
72498;BME280;60522;52.536;5.702;2023-01-16T15:24:08;97847.81;;;19.35;52.87
72498;BME280;60522;52.536;5.702;2023-01-16T15:26:47;97829.50;;;19.35;52.78
72498;BME280;60522;52.536;5.702;2023-01-16T15:31:59;97812.28;;;19.26;53.02
72498;BME280;60522;52.536;5.702;2023-01-16T15:34:28;97817.84;;;19.35;52.97
72498;BME280;60522;52.536;5.702;2023-01-16T15:36:55;97819.16;;;19.43;52.96